createdAt,value
2024-04-15T00:00:57.550Z,25.67
2024-04-15T00:01:57.446Z,25.69
2024-04-15T00:02:57.529Z,25.67
2024-04-15T00:03:57.523Z,25.71
2024-04-15T00:04:57.518Z,25.71
2024-04-15T00:05:57.492Z,25.69
2024-04-15T00:06:57.502Z,25.69
2024-04-15T00:07:57.496Z,25.69
2024-04-15T00:08:57.490Z,25.69
2024-04-15T00:09:57.508Z,25.69
2024-04-15T00:10:57.572Z,25.65
2024-04-15T00:11:57.478Z,25.68
2024-04-15T00:12:57.539Z,25.68
2024-04-15T00:13:57.477Z,25.67
2024-04-15T00:14:57.484Z,25.64
2024-04-15T00:15:57.652Z,25.67
2024-04-15T00:16:57.565Z,25.67
2024-04-15T00:17:57.559Z,25.65
2024-04-15T00:18:57.474Z,25.67
2024-04-15T00:19:57.481Z,25.67
2024-04-15T00:20:57.489Z,25.65
2024-04-15T00:21:57.511Z,25.65
2024-04-15T00:22:57.496Z,25.68
2024-04-15T00:23:57.474Z,25.67
2024-04-15T00:24:57.522Z,25.65
2024-04-15T00:25:57.519Z,25.65
2024-04-15T00:26:57.536Z,25.65
2024-04-15T00:27:57.610Z,25.64
2024-04-15T00:28:57.502Z,25.67
2024-04-15T00:29:57.494Z,25.65
2024-04-15T00:30:57.559Z,25.64
2024-04-15T00:31:57.503Z,25.67
2024-04-15T00:32:57.563Z,25.65
2024-04-15T00:33:57.577Z,25.62
2024-04-15T00:34:57.561Z,25.62
2024-04-15T00:35:57.561Z,25.64
2024-04-15T00:36:57.638Z,25.62
2024-04-15T00:37:57.663Z,25.61
2024-04-15T00:38:57.668Z,25.65
2024-04-15T00:39:57.763Z,25.64
2024-04-15T00:40:57.673Z,25.62
2024-04-15T00:41:57.680Z,25.65
2024-04-15T00:42:57.768Z,25.62
2024-04-15T00:43:57.732Z,25.62
2024-04-15T00:44:57.745Z,25.65
2024-04-15T00:45:57.763Z,25.64
2024-04-15T00:46:57.829Z,25.64
2024-04-15T00:47:57.812Z,25.64
2024-04-15T00:48:57.907Z,25.64
2024-04-15T00:49:57.869Z,25.65
2024-04-15T00:50:57.868Z,25.64
2024-04-15T00:51:57.927Z,25.64
2024-04-15T00:52:57.963Z,25.64
2024-04-15T00:53:57.947Z,25.62
2024-04-15T00:54:58.099Z,25.64
2024-04-15T00:55:58.008Z,25.64
2024-04-15T00:56:58.034Z,25.62
2024-04-15T00:57:58.206Z,25.62
2024-04-15T00:58:58.064Z,25.61
2024-04-15T00:59:58.103Z,25.62
2024-04-15T01:00:58.162Z,25.62
2024-04-15T01:01:58.238Z,25.60
2024-04-15T01:02:58.211Z,25.61
2024-04-15T01:03:58.272Z,25.58
2024-04-15T01:04:58.236Z,25.60
2024-04-15T01:05:58.245Z,25.61
2024-04-15T01:06:58.281Z,25.61
2024-04-15T01:07:58.316Z,25.61
2024-04-15T01:08:58.372Z,25.61
2024-04-15T01:09:58.414Z,25.64
2024-04-15T01:11:00.831Z,25.61
2024-04-15T01:11:58.403Z,25.64
2024-04-15T01:12:58.418Z,25.62
2024-04-15T01:13:58.413Z,25.64
2024-04-15T01:14:58.367Z,25.64
2024-04-15T01:15:58.441Z,25.61
2024-04-15T01:16:58.355Z,25.61
2024-04-15T01:17:58.437Z,25.64
2024-04-15T01:18:58.420Z,25.61
2024-04-15T01:19:58.380Z,25.62
2024-04-15T01:20:58.447Z,25.60
2024-04-15T01:21:58.426Z,25.58
2024-04-15T01:22:58.378Z,25.62
2024-04-15T01:23:58.410Z,25.61
2024-04-15T01:24:58.413Z,25.61
2024-04-15T01:25:58.406Z,25.61
2024-04-15T01:26:58.380Z,25.60
2024-04-15T01:27:58.421Z,25.62
2024-04-15T01:28:58.387Z,25.62
2024-04-15T01:29:58.380Z,25.62
2024-04-15T01:30:58.420Z,25.62
2024-04-15T01:31:58.435Z,25.62
2024-04-15T01:32:58.398Z,25.61
2024-04-15T01:33:58.417Z,25.61
2024-04-15T01:34:58.394Z,25.60
2024-04-15T01:35:58.373Z,25.61
2024-04-15T01:36:58.416Z,25.61
2024-04-15T01:37:58.413Z,25.60
2024-04-15T01:38:58.386Z,25.60
2024-04-15T01:39:58.435Z,25.60
2024-04-15T01:40:58.397Z,25.58
2024-04-15T01:41:58.412Z,25.61
2024-04-15T01:42:58.439Z,25.61
2024-04-15T01:43:58.411Z,25.58
2024-04-15T01:44:58.379Z,25.61
2024-04-15T01:45:58.413Z,25.57
2024-04-15T01:46:58.399Z,25.58
2024-04-15T01:47:58.437Z,25.58
2024-04-15T01:48:58.453Z,25.58
2024-04-15T01:49:58.413Z,25.57
2024-04-15T01:50:58.427Z,25.54
2024-04-15T01:51:58.455Z,25.57
2024-04-15T01:52:58.412Z,25.58
2024-04-15T01:53:58.427Z,25.60
2024-04-15T01:54:58.520Z,25.58
2024-04-15T01:55:59.366Z,25.55
2024-04-15T01:56:58.416Z,25.57
2024-04-15T01:57:58.457Z,25.58
2024-04-15T01:58:58.409Z,25.60
2024-04-15T01:59:58.418Z,25.60
2024-04-15T02:00:58.529Z,25.58
2024-04-15T02:01:58.416Z,25.60
2024-04-15T02:02:58.446Z,25.60
2024-04-15T02:03:58.516Z,25.58
2024-04-15T02:04:58.401Z,25.60
2024-04-15T02:05:58.416Z,25.57
2024-04-15T02:06:58.458Z,25.58
2024-04-15T02:07:58.431Z,25.58
2024-04-15T02:08:58.435Z,25.58
2024-04-15T02:09:58.423Z,25.58
2024-04-15T02:10:58.482Z,25.57
2024-04-15T02:11:58.414Z,25.58
2024-04-15T02:12:58.448Z,25.57
2024-04-15T02:13:58.438Z,25.57
2024-04-15T02:14:58.450Z,25.55
2024-04-15T02:15:58.442Z,25.55
2024-04-15T02:16:58.423Z,25.58
2024-04-15T02:17:58.529Z,25.58
2024-04-15T02:18:58.456Z,25.57
2024-04-15T02:19:58.425Z,25.54
2024-04-15T02:20:58.425Z,25.57
2024-04-15T02:21:58.453Z,25.55
2024-04-15T02:22:58.434Z,25.55
2024-04-15T02:23:58.436Z,25.58
2024-04-15T02:24:58.469Z,25.54
2024-04-15T02:25:58.446Z,25.57
2024-04-15T02:26:58.419Z,25.54
2024-04-15T02:27:58.460Z,25.55
2024-04-15T02:28:58.435Z,25.55
2024-04-15T02:29:58.413Z,25.52
2024-04-15T02:30:58.433Z,25.52
2024-04-15T02:31:58.450Z,25.51
2024-04-15T02:32:58.502Z,25.54
2024-04-15T02:33:58.467Z,25.52
2024-04-15T02:34:58.413Z,25.52
2024-04-15T02:35:58.436Z,25.54
2024-04-15T02:36:58.448Z,25.55
2024-04-15T02:37:58.441Z,25.52
2024-04-15T02:38:58.481Z,25.54
2024-04-15T02:39:58.508Z,25.54
2024-04-15T02:40:58.486Z,25.54
2024-04-15T02:41:58.460Z,25.55
2024-04-15T02:42:58.496Z,25.57
2024-04-15T02:43:58.450Z,25.54
2024-04-15T02:44:58.473Z,25.55
2024-04-15T02:45:58.524Z,25.55
2024-04-15T02:46:58.574Z,25.55
2024-04-15T02:47:58.702Z,25.52
2024-04-15T02:48:58.704Z,25.54
2024-04-15T02:49:58.624Z,25.51
2024-04-15T02:50:58.719Z,25.52
2024-04-15T02:51:58.771Z,25.55
2024-04-15T02:52:58.759Z,25.54
2024-04-15T02:53:58.790Z,25.54
2024-04-15T02:54:58.846Z,25.58
2024-04-15T02:55:58.892Z,25.57
2024-04-15T02:56:58.892Z,25.55
2024-04-15T02:57:58.983Z,25.57
2024-04-15T02:58:58.961Z,25.58
2024-04-15T02:59:58.987Z,25.58
2024-04-15T03:00:59.159Z,25.57
2024-04-15T03:01:59.038Z,25.57
2024-04-15T03:02:59.111Z,25.58
2024-04-15T03:03:59.217Z,25.55
2024-04-15T03:04:59.219Z,25.57
2024-04-15T03:05:59.125Z,25.60
2024-04-15T03:06:59.217Z,25.58
2024-04-15T03:07:59.228Z,25.60
2024-04-15T03:08:59.237Z,25.61
2024-04-15T03:09:59.310Z,25.61
2024-04-15T03:10:59.308Z,25.60
2024-04-15T03:11:59.326Z,25.58
2024-04-15T03:12:59.410Z,25.60
2024-04-15T03:13:59.398Z,25.60
2024-04-15T03:14:59.430Z,25.60
2024-04-15T03:16:05.733Z,25.58
2024-04-15T03:17:00.557Z,25.60
2024-04-15T03:17:59.629Z,25.54
2024-04-15T03:18:59.500Z,25.57
2024-04-15T03:19:59.485Z,25.58
2024-04-15T03:21:00.311Z,25.57
2024-04-15T03:21:59.508Z,25.55
2024-04-15T03:22:59.499Z,25.55
2024-04-15T03:23:59.473Z,25.57
2024-04-15T03:24:59.479Z,25.55
2024-04-15T03:25:59.477Z,25.55
2024-04-15T03:26:59.464Z,25.55
2024-04-15T03:27:59.532Z,25.55
2024-04-15T03:28:59.498Z,25.57
2024-04-15T03:29:59.435Z,25.55
2024-04-15T03:30:59.503Z,25.55
2024-04-15T03:31:59.473Z,25.54
2024-04-15T03:32:59.501Z,25.55
2024-04-15T03:33:59.524Z,25.54
2024-04-15T03:34:59.497Z,25.55
2024-04-15T03:35:59.488Z,25.51
2024-04-15T03:36:59.570Z,25.55
2024-04-15T03:37:59.596Z,25.52
2024-04-15T03:38:59.601Z,25.51
2024-04-15T03:39:59.688Z,25.54
2024-04-15T03:40:59.700Z,25.52
2024-04-15T03:41:59.780Z,25.54
2024-04-15T03:42:59.827Z,25.54
2024-04-15T03:43:59.793Z,25.54
2024-04-15T03:44:59.848Z,25.54
2024-04-15T03:45:59.911Z,25.54
2024-04-15T03:46:59.939Z,25.54
2024-04-15T03:47:59.993Z,25.54
2024-04-15T03:49:00.029Z,25.54
2024-04-15T03:49:59.999Z,25.54
2024-04-15T03:51:00.054Z,25.52
2024-04-15T03:52:00.096Z,25.52
2024-04-15T03:53:00.128Z,25.55
2024-04-15T03:54:00.224Z,25.54
2024-04-15T03:55:00.290Z,25.54
2024-04-15T03:56:00.217Z,25.54
2024-04-15T03:57:00.259Z,25.54
2024-04-15T03:58:00.338Z,25.52
2024-04-15T03:59:00.352Z,25.55
2024-04-15T04:00:00.372Z,25.52
2024-04-15T04:01:00.424Z,25.52
2024-04-15T04:02:00.401Z,25.50
2024-04-15T04:03:00.516Z,25.51
2024-04-15T04:04:00.631Z,25.50
2024-04-15T04:05:00.657Z,25.51
2024-04-15T04:06:10.128Z,25.52
2024-04-15T04:07:01.663Z,25.54
2024-04-15T04:08:00.594Z,25.52
2024-04-15T04:09:00.605Z,25.51
2024-04-15T04:10:00.671Z,25.52
2024-04-15T04:11:00.603Z,25.54
2024-04-15T04:12:00.603Z,25.51
2024-04-15T04:13:00.575Z,25.50
2024-04-15T04:14:00.550Z,25.50
2024-04-15T04:15:00.581Z,25.50
2024-04-15T04:16:00.613Z,25.54
2024-04-15T04:17:00.587Z,25.51
2024-04-15T04:18:00.759Z,25.48
2024-04-15T04:19:00.679Z,25.52
2024-04-15T04:20:00.582Z,25.51
2024-04-15T04:21:00.582Z,25.51
2024-04-15T04:22:00.630Z,25.51
2024-04-15T04:23:00.591Z,25.54
2024-04-15T04:24:00.630Z,25.48
2024-04-15T04:25:07.827Z,25.47
2024-04-15T04:26:07.778Z,25.48
2024-04-15T04:27:07.792Z,25.48
2024-04-15T04:28:07.901Z,25.48
2024-04-15T04:29:07.805Z,25.51
2024-04-15T04:30:07.816Z,25.51
2024-04-15T04:31:15.062Z,25.45
2024-04-15T04:32:15.043Z,25.45
2024-04-15T04:33:15.036Z,25.48
2024-04-15T04:34:15.064Z,25.45
2024-04-15T04:35:15.022Z,25.48
2024-04-15T04:36:15.031Z,25.48
2024-04-15T04:37:15.132Z,25.48
2024-04-15T04:38:15.038Z,25.50
2024-04-15T04:39:14.998Z,25.48
2024-04-15T04:40:15.097Z,25.50
2024-04-15T04:41:15.013Z,25.50
2024-04-15T04:42:15.027Z,25.48
2024-04-15T04:43:15.172Z,25.50
2024-04-15T04:44:15.033Z,25.48
2024-04-15T04:45:15.030Z,25.50
2024-04-15T04:46:15.163Z,25.48
2024-04-15T04:47:15.129Z,25.50
2024-04-15T04:48:15.023Z,25.48
2024-04-15T04:49:15.150Z,25.34
2024-04-15T04:50:15.109Z,25.19
2024-04-15T04:51:15.045Z,25.13
2024-04-15T04:52:15.095Z,25.05
2024-04-15T04:53:15.042Z,24.99
2024-04-15T04:54:17.306Z,24.93
2024-04-15T04:55:15.339Z,24.86
2024-04-15T04:56:15.275Z,24.82
2024-04-15T04:57:15.275Z,24.72
2024-04-15T04:58:15.410Z,24.66
2024-04-15T04:59:15.345Z,24.62
2024-04-15T05:00:15.350Z,24.56
2024-04-15T05:02:44.398Z,24.41
2024-04-15T05:03:21.755Z,24.31
2024-04-15T05:04:21.849Z,24.25
2024-04-15T05:05:21.715Z,24.21
2024-04-15T05:06:21.721Z,24.17
2024-04-15T05:07:21.706Z,24.17
2024-04-15T05:08:21.675Z,24.14
2024-04-15T05:09:22.659Z,24.10
2024-04-15T05:10:21.754Z,24.13
2024-04-15T05:11:21.708Z,24.15
2024-04-15T05:12:21.724Z,24.10
2024-04-15T05:13:21.746Z,24.05
2024-04-15T05:14:21.669Z,24.01
2024-04-15T05:15:21.710Z,24.00
2024-04-15T05:16:21.715Z,23.96
2024-04-15T05:17:21.724Z,23.94
2024-04-15T05:18:21.805Z,23.94
2024-04-15T05:19:21.805Z,23.90
2024-04-15T05:20:21.830Z,23.88
2024-04-15T05:21:21.735Z,23.93
2024-04-15T05:22:21.753Z,23.93
2024-04-15T05:23:21.687Z,23.91
2024-04-15T05:24:21.753Z,23.91
2024-04-15T05:25:21.778Z,23.91
2024-04-15T05:26:21.698Z,23.84
2024-04-15T05:27:21.698Z,23.74
2024-04-15T05:28:21.792Z,23.74
2024-04-15T05:29:21.807Z,23.73
2024-04-15T05:30:21.787Z,23.74
2024-04-15T05:31:21.754Z,23.69
2024-04-15T05:32:21.815Z,23.66
2024-04-15T05:33:22.733Z,23.77
2024-04-15T05:34:22.272Z,23.86
2024-04-15T05:35:21.745Z,23.87
2024-04-15T05:36:24.691Z,23.93
2024-04-15T05:37:21.781Z,24.01
2024-04-15T05:38:21.750Z,24.07
2024-04-15T05:39:22.202Z,24.11
2024-04-15T05:40:21.830Z,24.18
2024-04-15T05:41:21.760Z,24.24
2024-04-15T05:42:21.778Z,24.30
2024-04-15T05:43:21.861Z,24.34
2024-04-15T05:44:22.195Z,24.42
2024-04-15T05:45:43.819Z,24.50
2024-04-15T05:47:50.707Z,24.62
2024-04-15T05:48:28.256Z,24.65
2024-04-15T05:49:28.017Z,24.63
2024-04-15T05:50:27.979Z,24.55
2024-04-15T05:51:27.989Z,24.51
2024-04-15T05:52:28.765Z,24.42
2024-04-15T05:53:28.018Z,24.34
2024-04-15T05:54:28.334Z,24.25
2024-04-15T05:55:28.013Z,24.21
2024-04-15T05:56:27.983Z,24.15
2024-04-15T05:57:27.982Z,24.04
2024-04-15T05:58:28.101Z,24.04
2024-04-15T05:59:28.314Z,23.97
2024-04-15T06:00:28.076Z,23.99
2024-04-15T06:01:28.078Z,23.94
2024-04-15T06:02:28.151Z,23.90
2024-04-15T06:03:28.130Z,23.81
2024-04-15T06:04:28.348Z,23.81
2024-04-15T06:05:28.190Z,23.81
2024-04-15T06:06:28.201Z,23.81
2024-04-15T06:07:28.243Z,23.84
2024-04-15T06:08:28.306Z,23.80
2024-04-15T06:09:28.320Z,23.79
2024-04-15T06:10:28.365Z,23.77
2024-04-15T06:11:28.398Z,23.70
2024-04-15T06:12:28.351Z,23.69
2024-04-15T06:13:28.356Z,23.69
2024-04-15T06:14:28.783Z,23.70
2024-04-15T06:15:28.443Z,23.69
2024-04-15T06:16:28.597Z,23.66
2024-04-15T06:17:28.573Z,23.63
2024-04-15T06:18:28.490Z,23.60
2024-04-15T06:19:28.591Z,23.60
2024-04-15T06:20:28.642Z,23.55
2024-04-15T06:21:28.735Z,23.57
2024-04-15T06:22:29.073Z,23.57
2024-04-15T06:23:28.840Z,23.60
2024-04-15T06:24:29.311Z,23.63
2024-04-15T06:25:28.966Z,23.62
2024-04-15T06:26:28.954Z,23.62
2024-04-15T06:27:29.041Z,23.56
2024-04-15T06:28:29.162Z,23.49
2024-04-15T06:29:29.214Z,23.46
2024-04-15T06:30:29.167Z,23.49
2024-04-15T06:31:29.230Z,23.56
2024-04-15T06:32:29.447Z,23.53
2024-04-15T06:33:29.437Z,23.59
2024-04-15T06:34:29.416Z,23.59
2024-04-15T06:35:29.506Z,23.57
2024-04-15T06:36:29.850Z,23.60
2024-04-15T06:37:29.722Z,23.66
2024-04-15T06:38:29.693Z,23.74
2024-04-15T06:39:29.801Z,23.79
2024-04-15T06:40:29.811Z,23.86
2024-04-15T06:41:29.719Z,23.88
2024-04-15T06:42:29.740Z,23.87
2024-04-15T06:43:29.875Z,23.83
2024-04-15T06:44:29.805Z,23.84
2024-04-15T06:45:29.941Z,23.84
2024-04-15T06:46:29.909Z,23.79
2024-04-15T06:47:29.876Z,23.84
2024-04-15T06:48:29.906Z,23.86
2024-04-15T06:49:30.695Z,23.96
2024-04-15T06:50:29.938Z,23.97
2024-04-15T06:51:30.437Z,24.03
2024-04-15T06:52:30.107Z,24.04
2024-04-15T06:53:30.132Z,24.08
2024-04-15T06:54:30.404Z,24.10
2024-04-15T06:55:30.319Z,24.17
2024-04-15T06:56:30.399Z,24.14
2024-04-15T06:57:30.461Z,24.20
2024-04-15T06:58:30.445Z,24.24
2024-04-15T06:59:30.549Z,24.24
2024-04-15T07:00:30.681Z,24.21
2024-04-15T07:01:31.970Z,24.30
2024-04-15T07:02:30.751Z,24.31
2024-04-15T07:03:30.881Z,24.31
2024-04-15T07:04:30.781Z,24.34
2024-04-15T07:05:30.740Z,24.32
2024-04-15T07:06:30.807Z,24.34
2024-04-15T07:07:30.873Z,24.36
2024-04-15T07:08:30.912Z,24.36
2024-04-15T07:09:32.385Z,24.35
2024-04-15T07:10:30.980Z,24.36
2024-04-15T07:11:31.105Z,24.36
2024-04-15T07:12:31.152Z,24.41
2024-04-15T07:13:31.118Z,24.45
2024-04-15T07:14:31.160Z,24.48
2024-04-15T07:15:31.686Z,24.55
2024-04-15T07:16:31.239Z,24.58
2024-04-15T07:17:31.240Z,24.63
2024-04-15T07:18:31.186Z,24.71
2024-04-15T07:19:31.220Z,24.73
2024-04-15T07:20:31.301Z,24.82
2024-04-15T07:21:31.426Z,24.85
2024-04-15T07:22:31.435Z,24.86
2024-04-15T07:23:31.490Z,24.93
2024-04-15T07:24:31.547Z,24.96
2024-04-15T07:25:31.681Z,25.03
2024-04-15T07:26:31.633Z,25.06
2024-04-15T07:27:31.671Z,25.10
2024-04-15T07:28:31.684Z,25.17
2024-04-15T07:29:31.862Z,25.21
2024-04-15T07:30:31.834Z,25.21
2024-04-15T07:31:31.884Z,25.30
2024-04-15T07:32:31.944Z,25.29
2024-04-15T07:33:31.906Z,25.29
2024-04-15T07:34:31.981Z,25.37
2024-04-15T07:35:32.339Z,25.41
2024-04-15T07:36:31.974Z,25.40
2024-04-15T07:37:31.938Z,25.45
2024-04-15T07:38:31.968Z,25.42
2024-04-15T07:39:32.332Z,25.42
2024-04-15T07:40:32.041Z,25.45
2024-04-15T07:41:32.062Z,25.47
2024-04-15T07:42:39.737Z,25.48
2024-04-15T07:43:33.004Z,25.52
2024-04-15T07:44:31.991Z,25.50
2024-04-15T07:45:32.792Z,25.52
2024-04-15T07:46:32.124Z,25.51
2024-04-15T07:47:32.037Z,25.57
2024-04-15T07:48:32.022Z,25.54
2024-04-15T07:49:31.970Z,25.54
2024-04-15T07:50:32.007Z,25.52
2024-04-15T07:51:32.026Z,25.52
2024-04-15T07:52:31.981Z,25.52
2024-04-15T07:53:31.995Z,25.51
2024-04-15T07:54:32.063Z,25.51
2024-04-15T07:55:32.097Z,25.54
2024-04-15T07:56:31.988Z,25.51
2024-04-15T07:57:31.954Z,25.45
2024-04-15T07:58:32.021Z,25.51
2024-04-15T07:59:31.986Z,25.52
2024-04-15T08:00:31.994Z,25.52
2024-04-15T08:01:32.095Z,25.51
2024-04-15T08:02:32.246Z,25.51
2024-04-15T08:03:32.116Z,25.52
2024-04-15T08:04:32.188Z,25.52
2024-04-15T08:05:32.133Z,25.51
2024-04-15T08:06:32.242Z,25.48
2024-04-15T08:07:32.272Z,25.50
2024-04-15T08:08:32.374Z,25.51
2024-04-15T08:09:32.339Z,25.47
2024-04-15T08:10:32.907Z,25.48
2024-04-15T08:11:32.423Z,25.50
2024-04-15T08:12:32.488Z,25.50
2024-04-15T08:13:32.531Z,25.50
2024-04-15T08:14:32.542Z,25.48
2024-04-15T08:15:32.746Z,25.50
2024-04-15T08:16:32.721Z,25.48
2024-04-15T08:17:33.155Z,25.48
2024-04-15T08:18:32.737Z,25.47
2024-04-15T08:19:32.841Z,25.47
2024-04-15T08:20:32.878Z,25.42
2024-04-15T08:21:32.931Z,25.45
2024-04-15T08:22:32.959Z,25.47
2024-04-15T08:23:32.973Z,25.44
2024-04-15T08:24:33.027Z,25.47
2024-04-15T08:25:33.147Z,25.45
2024-04-15T08:26:36.396Z,25.48
2024-04-15T08:27:33.160Z,25.45
2024-04-15T08:28:33.156Z,25.47
2024-04-15T08:29:33.164Z,25.50
2024-04-15T08:30:33.169Z,25.50
2024-04-15T08:31:33.139Z,25.52
2024-04-15T08:32:33.257Z,25.52
2024-04-15T08:33:33.206Z,25.51
2024-04-15T08:34:33.200Z,25.58
2024-04-15T08:35:33.386Z,25.57
2024-04-15T08:36:33.169Z,25.61
2024-04-15T08:37:33.191Z,25.61
2024-04-15T08:38:33.174Z,25.58
2024-04-15T08:39:33.190Z,25.55
2024-04-15T08:40:33.359Z,25.54
2024-04-15T08:41:33.198Z,25.52
2024-04-15T08:42:33.144Z,25.50
2024-04-15T08:43:33.218Z,25.48
2024-04-15T08:44:33.154Z,25.48
2024-04-15T08:45:33.179Z,25.47
2024-04-15T08:46:33.254Z,25.45
2024-04-15T08:47:33.238Z,25.47
2024-04-15T08:48:33.180Z,25.45
2024-04-15T08:49:33.226Z,25.34
2024-04-15T08:50:33.383Z,25.20
2024-04-15T08:51:33.218Z,25.21
2024-04-15T08:52:33.176Z,25.26
2024-04-15T08:53:33.191Z,25.21
2024-04-15T08:54:33.223Z,25.29
2024-04-15T08:55:33.457Z,25.30
2024-04-15T08:56:33.212Z,25.34
2024-04-15T08:57:33.207Z,25.37
2024-04-15T08:58:33.228Z,25.42
2024-04-15T08:59:33.218Z,25.45
2024-04-15T09:00:35.402Z,25.50
2024-04-15T09:01:33.261Z,25.52
2024-04-15T09:02:33.223Z,25.54
2024-04-15T09:03:33.358Z,25.54
2024-04-15T09:04:33.345Z,25.60
2024-04-15T09:05:33.303Z,25.61
2024-04-15T09:06:33.266Z,25.57
2024-04-15T09:07:33.230Z,25.62
2024-04-15T09:08:33.185Z,25.65
2024-04-15T09:09:55.852Z,25.62
2024-04-15T09:10:33.263Z,25.62
2024-04-15T09:11:33.241Z,25.62
2024-04-15T09:12:33.278Z,25.58
2024-04-15T09:13:33.219Z,25.61
2024-04-15T09:14:35.520Z,25.67
2024-04-15T09:15:33.238Z,25.69
2024-04-15T09:16:33.967Z,25.71
2024-04-15T09:17:33.262Z,25.72
2024-04-15T09:18:33.287Z,25.71
2024-04-15T09:19:33.207Z,25.67
2024-04-15T09:20:43.336Z,25.67
2024-04-15T09:21:34.235Z,25.65
2024-04-15T09:22:33.258Z,25.62
2024-04-15T09:23:33.218Z,25.64
2024-04-15T09:24:33.334Z,25.64
2024-04-15T09:25:33.281Z,25.71
2024-04-15T09:26:33.316Z,25.68
2024-04-15T09:27:33.209Z,25.69
2024-04-15T09:28:33.493Z,25.67
2024-04-15T09:29:33.236Z,25.68
2024-04-15T09:30:33.311Z,25.71
2024-04-15T09:31:33.310Z,25.69
2024-04-15T09:32:33.371Z,25.72
2024-04-15T09:33:33.270Z,25.72
2024-04-15T09:34:33.258Z,25.72
2024-04-15T09:35:33.287Z,25.72
2024-04-15T09:36:33.224Z,25.72
2024-04-15T09:37:33.549Z,25.75
2024-04-15T09:38:33.248Z,25.74
2024-04-15T09:39:33.296Z,25.75
2024-04-15T09:40:33.329Z,25.77
2024-04-15T09:41:33.317Z,25.77
2024-04-15T09:42:33.278Z,25.78
2024-04-15T09:43:33.361Z,25.79
2024-04-15T09:44:33.441Z,25.75
2024-04-15T09:45:33.540Z,25.78
2024-04-15T09:46:33.384Z,25.81
2024-04-15T09:47:33.482Z,25.81
2024-04-15T09:48:33.350Z,25.81
2024-04-15T09:49:33.354Z,25.84
2024-04-15T09:50:33.376Z,25.85
2024-04-15T09:51:33.363Z,25.85
2024-04-15T09:52:33.478Z,25.78
2024-04-15T09:53:33.452Z,25.74
2024-04-15T09:54:33.449Z,25.72
2024-04-15T09:55:33.974Z,25.69
2024-04-15T09:56:33.653Z,25.71
2024-04-15T09:57:33.636Z,25.61
2024-04-15T09:58:56.195Z,25.67
2024-04-15T09:59:33.655Z,25.68
2024-04-15T10:00:33.665Z,25.74
2024-04-15T10:01:33.873Z,25.75
2024-04-15T10:02:33.681Z,25.77
2024-04-15T10:03:33.645Z,25.78
2024-04-15T10:04:34.121Z,25.82
2024-04-15T10:05:33.615Z,25.79
2024-04-15T10:06:33.642Z,25.84
2024-04-15T10:07:33.620Z,25.88
2024-04-15T10:08:33.610Z,25.93
2024-04-15T10:09:33.721Z,25.96
2024-04-15T10:10:33.861Z,25.99
2024-04-15T10:11:33.721Z,25.98
2024-04-15T10:12:33.632Z,25.98
2024-04-15T10:13:33.640Z,25.98
2024-04-15T10:14:33.581Z,25.93
2024-04-15T10:15:33.608Z,25.92
2024-04-15T10:16:38.484Z,25.92
2024-04-15T10:17:34.710Z,25.91
2024-04-15T10:18:33.628Z,25.89
2024-04-15T10:19:33.698Z,25.88
2024-04-15T10:20:33.646Z,25.84
2024-04-15T10:21:33.653Z,25.82
2024-04-15T10:22:33.758Z,25.85
2024-04-15T10:23:33.736Z,25.84
2024-04-15T10:24:33.653Z,25.87
2024-04-15T10:25:35.266Z,25.82
2024-04-15T10:26:33.670Z,25.84
2024-04-15T10:27:33.640Z,25.88
2024-04-15T10:28:33.702Z,25.91
2024-04-15T10:29:33.689Z,25.88
2024-04-15T10:30:33.980Z,25.89
2024-04-15T10:31:33.685Z,25.85
2024-04-15T10:32:34.285Z,25.82
2024-04-15T10:33:33.694Z,25.85
2024-04-15T10:34:33.680Z,25.88
2024-04-15T10:35:34.308Z,25.88
2024-04-15T10:36:34.877Z,25.91
2024-04-15T10:37:34.012Z,25.93
2024-04-15T10:38:33.648Z,25.95
2024-04-15T10:39:34.342Z,26.00
2024-04-15T10:40:34.195Z,26.02
2024-04-15T10:41:33.996Z,26.02
2024-04-15T10:42:33.878Z,26.00
2024-04-15T10:43:33.855Z,26.02
2024-04-15T10:44:34.493Z,26.03
2024-04-15T10:45:33.908Z,26.02
2024-04-15T10:46:34.429Z,26.05
2024-04-15T10:47:34.854Z,26.05
2024-04-15T10:48:33.948Z,26.02
2024-04-15T10:49:34.097Z,26.02
2024-04-15T10:50:33.989Z,25.99
2024-04-15T10:51:34.405Z,26.02
2024-04-15T10:52:34.369Z,25.99
2024-04-15T10:53:35.301Z,25.96
2024-04-15T10:54:34.832Z,25.95
2024-04-15T10:55:34.118Z,25.91
2024-04-15T10:56:34.057Z,25.84
2024-04-15T10:57:34.383Z,25.84
2024-04-15T10:58:34.092Z,25.84
2024-04-15T10:59:34.182Z,25.81
2024-04-15T11:00:34.248Z,25.79
2024-04-15T11:01:34.259Z,25.82
2024-04-15T11:02:35.149Z,25.87
2024-04-15T11:03:57.506Z,25.88
2024-04-15T11:04:34.414Z,25.92
2024-04-15T11:05:34.304Z,25.91
2024-04-15T11:06:34.308Z,25.91
2024-04-15T11:07:34.356Z,25.91
2024-04-15T11:08:34.395Z,25.91
2024-04-15T11:09:34.389Z,25.88
2024-04-15T11:10:34.494Z,25.84
2024-04-15T11:11:34.461Z,25.87
2024-04-15T11:12:34.448Z,25.87
2024-04-15T11:13:34.499Z,25.89
2024-04-15T11:14:34.461Z,25.88
2024-04-15T11:15:34.466Z,25.92
2024-04-15T11:16:34.495Z,25.88
2024-04-15T11:17:34.563Z,25.91
2024-04-15T11:18:34.502Z,25.92
2024-04-15T11:19:34.503Z,25.92
2024-04-15T11:20:34.497Z,25.92
2024-04-15T11:21:34.928Z,25.92
2024-04-15T11:22:35.897Z,25.92
2024-04-15T11:23:34.505Z,25.95
2024-04-15T11:24:34.488Z,25.95
2024-04-15T11:25:34.949Z,25.93
2024-04-15T11:26:34.962Z,25.89
2024-04-15T11:27:35.333Z,25.88
2024-04-15T11:28:34.780Z,25.84
2024-04-15T11:29:41.466Z,25.84
2024-04-15T11:30:35.611Z,25.84
2024-04-15T11:31:34.996Z,25.81
2024-04-15T11:32:34.856Z,25.78
2024-04-15T11:33:34.807Z,25.79
2024-04-15T11:34:34.651Z,25.77
2024-04-15T11:35:34.586Z,25.72
2024-04-15T11:36:35.025Z,25.65
2024-04-15T11:37:34.630Z,25.67
2024-04-15T11:38:34.657Z,25.61
2024-04-15T11:39:34.589Z,25.64
2024-04-15T11:40:34.673Z,25.61
2024-04-15T11:41:34.968Z,25.58
2024-04-15T11:42:34.631Z,25.55
2024-04-15T11:43:34.701Z,25.48
2024-04-15T11:44:34.635Z,25.41
2024-04-15T11:45:34.639Z,25.41
2024-04-15T11:46:34.677Z,25.38
2024-04-15T11:47:34.922Z,25.38
2024-04-15T11:48:34.706Z,25.36
2024-04-15T11:49:35.180Z,25.34
2024-04-15T11:50:34.808Z,25.36
2024-04-15T11:51:34.923Z,25.31
2024-04-15T11:52:34.989Z,25.27
2024-04-15T11:53:35.009Z,25.29
2024-04-15T11:54:35.018Z,25.24
2024-04-15T11:55:34.968Z,25.19
2024-04-15T11:56:35.021Z,25.20
2024-04-15T11:57:35.053Z,25.19
2024-04-15T11:58:35.106Z,25.19
2024-04-15T11:59:35.054Z,25.17
2024-04-15T12:00:35.108Z,25.19
2024-04-15T12:02:59.760Z,25.14
2024-04-15T12:03:35.108Z,25.16
2024-04-15T12:04:35.132Z,25.16
2024-04-15T12:05:35.222Z,25.11
2024-04-15T12:06:35.098Z,25.07
2024-04-15T12:07:35.114Z,25.02
2024-04-15T12:08:35.117Z,24.93
2024-04-15T12:09:35.113Z,24.92
2024-04-15T12:10:35.186Z,24.93
2024-04-15T12:11:35.111Z,24.92
2024-04-15T12:12:35.128Z,24.93
2024-04-15T12:13:35.085Z,24.92
2024-04-15T12:14:35.079Z,24.92
2024-04-15T12:15:35.095Z,24.90
2024-04-15T12:16:35.231Z,24.92
2024-04-15T12:17:35.120Z,24.94
2024-04-15T12:18:35.118Z,24.87
2024-04-15T12:19:35.088Z,24.85
2024-04-15T12:20:35.091Z,24.85
2024-04-15T12:21:35.521Z,24.82
2024-04-15T12:22:35.124Z,24.79
2024-04-15T12:23:35.247Z,24.83
2024-04-15T12:24:36.034Z,24.82
2024-04-15T12:25:35.224Z,24.78
2024-04-15T12:26:35.137Z,24.79
2024-04-15T12:27:38.009Z,24.81
2024-04-15T12:28:35.102Z,24.78
2024-04-15T12:29:35.160Z,24.81
2024-04-15T12:30:35.091Z,24.81
2024-04-15T12:31:35.204Z,24.81
2024-04-15T12:32:35.335Z,24.82
2024-04-15T12:33:35.654Z,24.83
2024-04-15T12:34:35.223Z,24.85
2024-04-15T12:35:35.136Z,24.85
2024-04-15T12:36:35.131Z,24.85
2024-04-15T12:37:35.145Z,24.83
2024-04-15T12:38:35.208Z,24.85
2024-04-15T12:39:35.207Z,24.86
2024-04-15T12:40:35.159Z,24.83
2024-04-15T12:41:35.128Z,24.83
2024-04-15T12:42:35.205Z,24.87
2024-04-15T12:43:35.120Z,24.86
2024-04-15T12:44:35.177Z,24.87
2024-04-15T12:45:35.153Z,24.86
2024-04-15T12:46:36.039Z,24.86
2024-04-15T12:47:35.427Z,24.83
2024-04-15T12:48:36.117Z,24.85
2024-04-15T12:49:37.164Z,24.83
2024-04-15T12:50:35.198Z,24.82
2024-04-15T12:51:35.131Z,24.82
2024-04-15T12:52:35.305Z,24.85
2024-04-15T12:53:35.161Z,24.85
2024-04-15T12:54:35.159Z,24.83
2024-04-15T12:55:35.345Z,24.85
2024-04-15T12:56:35.165Z,24.83